sensor_id;sensor_type;location;lat;lon;timestamp;pressure;altitude;pressure_sealevel;temperature;humidity
73862;BME280;63459;51.456;-0.916;2023-06-14T02:46:03;101109.22;;;27.23;13.52
73862;BME280;63459;51.456;-0.916;2023-06-14T02:48:28;101109.50;;;27.47;13.52
73862;BME280;63459;51.456;-0.916;2023-06-14T02:50:48;101108.49;;;27.43;13.59
73862;BME280;63459;51.456;-0.916;2023-06-14T02:53:14;101111.43;;;28.06;13.69
73862;BME280;63459;51.456;-0.916;2023-06-14T02:55:39;101113.17;;;27.64;13.75
73862;BME280;63459;51.456;-0.916;2023-06-14T02:58:04;101107.42;;;27.34;13.82
73862;BME280;63459;51.456;-0.916;2023-06-14T03:00:30;101112.55;;;27.52;13.90
73862;BME280;63459;51.456;-0.916;2023-06-14T03:02:56;101114.18;;;27.33;13.91
73862;BME280;63459;51.456;-0.916;2023-06-14T03:05:25;101115.99;;;27.51;14.00
73862;BME280;63459;51.456;-0.916;2023-06-14T03:07:50;101117.80;;;27.21;14.08
73862;BME280;63459;51.456;-0.916;2023-06-14T03:10:11;101119.12;;;27.39;14.18
73862;BME280;63459;51.456;-0.916;2023-06-14T03:12:36;101118.87;;;27.30;14.22
73862;BME280;63459;51.456;-0.916;2023-06-14T03:15:01;101123.57;;;27.07;14.26
73862;BME280;63459;51.456;-0.916;2023-06-14T03:17:27;101125.03;;;27.72;14.30
73862;BME280;63459;51.456;-0.916;2023-06-14T03:20:03;101124.81;;;26.60;14.38
73862;BME280;63459;51.456;-0.916;2023-06-14T03:24:43;101127.33;;;27.93;14.53
73862;BME280;63459;51.456;-0.916;2023-06-14T03:27:08;101126.15;;;27.61;14.64
73862;BME280;63459;51.456;-0.916;2023-06-14T03:29:34;101126.09;;;27.12;14.74
73862;BME280;63459;51.456;-0.916;2023-06-14T03:32:00;101127.17;;;27.27;14.86
73862;BME280;63459;51.456;-0.916;2023-06-14T03:34:30;101127.02;;;27.23;15.01
73862;BME280;63459;51.456;-0.916;2023-06-14T03:36:49;101125.60;;;26.97;15.16
73862;BME280;63459;51.456;-0.916;2023-06-14T03:39:15;101131.18;;;27.30;15.28
73862;BME280;63459;51.456;-0.916;2023-06-14T03:41:41;101127.03;;;27.19;15.45
73862;BME280;63459;51.456;-0.916;2023-06-14T03:44:05;101128.70;;;27.34;15.66
73862;BME280;63459;51.456;-0.916;2023-06-14T03:46:32;101130.13;;;26.67;15.72
73862;BME280;63459;51.456;-0.916;2023-06-14T03:48:56;101130.56;;;27.31;15.79
73862;BME280;63459;51.456;-0.916;2023-06-14T03:51:23;101130.81;;;26.86;15.89
73862;BME280;63459;51.456;-0.916;2023-06-14T03:53:54;101126.80;;;27.33;15.93
73862;BME280;63459;51.456;-0.916;2023-06-14T03:56:13;101128.06;;;26.87;16.01
73862;BME280;63459;51.456;-0.916;2023-06-14T04:03:28;101129.77;;;26.95;16.00
73862;BME280;63459;51.456;-0.916;2023-06-14T04:05:54;101126.44;;;27.39;15.97
73862;BME280;63459;51.456;-0.916;2023-06-14T04:08:19;101123.50;;;26.99;15.92
73862;BME280;63459;51.456;-0.916;2023-06-14T04:10:44;101119.70;;;27.01;15.86
73862;BME280;63459;51.456;-0.916;2023-06-14T04:13:09;101124.91;;;27.24;15.83
73862;BME280;63459;51.456;-0.916;2023-06-14T04:15:35;101128.69;;;26.87;15.76
73862;BME280;63459;51.456;-0.916;2023-06-14T04:18:01;101131.45;;;26.97;15.68
73862;BME280;63459;51.456;-0.916;2023-06-14T04:20:25;101131.90;;;27.20;15.68
73862;BME280;63459;51.456;-0.916;2023-06-14T04:25:16;101136.65;;;27.20;15.78
73862;BME280;63459;51.456;-0.916;2023-06-14T04:27:41;101140.30;;;27.26;15.77
73862;BME280;63459;51.456;-0.916;2023-06-14T04:30:08;101139.51;;;27.01;15.70
73862;BME280;63459;51.456;-0.916;2023-06-14T04:32:33;101139.72;;;27.28;15.48
73862;BME280;63459;51.456;-0.916;2023-06-14T04:34:57;101138.04;;;27.44;15.46
73862;BME280;63459;51.456;-0.916;2023-06-14T04:37:23;101138.32;;;27.67;15.48
73862;BME280;63459;51.456;-0.916;2023-06-14T04:39:48;101139.82;;;27.44;15.46
73862;BME280;63459;51.456;-0.916;2023-06-14T04:42:14;101138.63;;;27.48;15.45
73862;BME280;63459;51.456;-0.916;2023-06-14T04:47:05;101138.00;;;27.02;15.56
73862;BME280;63459;51.456;-0.916;2023-06-14T04:49:35;101139.66;;;27.69;15.61
73862;BME280;63459;51.456;-0.916;2023-06-14T04:51:56;101143.01;;;27.66;15.69
73862;BME280;63459;51.456;-0.916;2023-06-14T04:54:20;101143.94;;;27.46;15.75
73862;BME280;63459;51.456;-0.916;2023-06-14T04:56:46;101146.78;;;27.73;15.86
73862;BME280;63459;51.456;-0.916;2023-06-14T04:59:13;101151.40;;;27.34;16.00
73862;BME280;63459;51.456;-0.916;2023-06-14T05:01:36;101151.99;;;27.70;15.97
73862;BME280;63459;51.456;-0.916;2023-06-14T05:04:02;101155.46;;;27.66;15.97
73862;BME280;63459;51.456;-0.916;2023-06-14T05:06:27;101152.08;;;28.23;15.87
73862;BME280;63459;51.456;-0.916;2023-06-14T05:08:53;101154.98;;;28.40;15.58
73862;BME280;63459;51.456;-0.916;2023-06-14T05:11:17;101147.00;;;29.33;15.27
73862;BME280;63459;51.456;-0.916;2023-06-14T05:13:43;101147.72;;;29.66;14.92
73862;BME280;63459;51.456;-0.916;2023-06-14T05:16:08;101148.84;;;30.28;14.53
73862;BME280;63459;51.456;-0.916;2023-06-14T05:18:36;101153.18;;;30.94;14.14
73862;BME280;63459;51.456;-0.916;2023-06-14T05:20:58;101156.27;;;31.74;13.69
73862;BME280;63459;51.456;-0.916;2023-06-14T05:23:23;101154.24;;;31.98;13.31
73862;BME280;63459;51.456;-0.916;2023-06-14T05:25:50;101156.20;;;32.62;12.86
73862;BME280;63459;51.456;-0.916;2023-06-14T05:28:14;101154.87;;;33.84;12.34
73862;BME280;63459;51.456;-0.916;2023-06-14T05:30:39;101154.43;;;34.45;11.97
73862;BME280;63459;51.456;-0.916;2023-06-14T05:33:05;101162.68;;;34.88;11.63
73862;BME280;63459;51.456;-0.916;2023-06-14T05:35:30;101157.02;;;35.66;11.23
73862;BME280;63459;51.456;-0.916;2023-06-14T05:37:56;101150.30;;;35.78;10.86
73862;BME280;63459;51.456;-0.916;2023-06-14T05:42:47;101150.97;;;37.09;10.28
73862;BME280;63459;51.456;-0.916;2023-06-14T05:45:17;101150.71;;;37.49;10.01
73862;BME280;63459;51.456;-0.916;2023-06-14T05:47:41;101147.33;;;37.33;9.72
73862;BME280;63459;51.456;-0.916;2023-06-14T05:50:06;101147.45;;;37.98;9.48
73862;BME280;63459;51.456;-0.916;2023-06-14T05:52:30;101143.78;;;37.57;9.35
73862;BME280;63459;51.456;-0.916;2023-06-14T05:54:56;101140.30;;;38.50;9.26
73862;BME280;63459;51.456;-0.916;2023-06-14T05:57:18;101142.31;;;38.65;9.16
73862;BME280;63459;51.456;-0.916;2023-06-14T05:59:43;101139.77;;;38.31;9.14
73862;BME280;63459;51.456;-0.916;2023-06-14T06:02:08;101146.84;;;38.59;9.07
73862;BME280;63459;51.456;-0.916;2023-06-14T06:04:33;101147.73;;;38.58;9.02
73862;BME280;63459;51.456;-0.916;2023-06-14T06:06:58;101155.44;;;38.12;8.87
73862;BME280;63459;51.456;-0.916;2023-06-14T06:09:28;101150.21;;;38.65;8.94
73862;BME280;63459;51.456;-0.916;2023-06-14T06:11:48;101149.65;;;38.37;8.92
73862;BME280;63459;51.456;-0.916;2023-06-14T06:14:23;101154.82;;;38.65;8.91
73862;BME280;63459;51.456;-0.916;2023-06-14T06:16:45;101152.63;;;38.72;9.03
73862;BME280;63459;51.456;-0.916;2023-06-14T06:19:03;101151.71;;;38.36;9.15
73862;BME280;63459;51.456;-0.916;2023-06-14T06:21:28;101157.20;;;38.33;9.21
73862;BME280;63459;51.456;-0.916;2023-06-14T06:23:57;101152.29;;;38.41;9.22
73862;BME280;63459;51.456;-0.916;2023-06-14T06:28:45;101158.51;;;38.56;9.22
73862;BME280;63459;51.456;-0.916;2023-06-14T06:31:09;101158.10;;;38.79;9.25
73862;BME280;63459;51.456;-0.916;2023-06-14T06:33:35;101160.78;;;38.66;9.23
73862;BME280;63459;51.456;-0.916;2023-06-14T06:35:59;101160.10;;;38.61;9.26
73862;BME280;63459;51.456;-0.916;2023-06-14T06:38:24;101165.61;;;38.59;9.16
73862;BME280;63459;51.456;-0.916;2023-06-14T06:40:49;101168.35;;;39.17;9.05
73862;BME280;63459;51.456;-0.916;2023-06-14T06:43:14;101169.78;;;39.28;9.01
73862;BME280;63459;51.456;-0.916;2023-06-14T06:45:39;101166.91;;;39.74;9.00
73862;BME280;63459;51.456;-0.916;2023-06-14T06:48:05;101169.05;;;39.46;8.96
73862;BME280;63459;51.456;-0.916;2023-06-14T06:50:40;101164.44;;;39.60;8.95
73862;BME280;63459;51.456;-0.916;2023-06-14T06:53:00;101164.92;;;39.36;8.87
73862;BME280;63459;51.456;-0.916;2023-06-14T06:55:20;101166.51;;;39.67;8.92
73862;BME280;63459;51.456;-0.916;2023-06-14T06:57:45;101160.97;;;39.71;8.97
73862;BME280;63459;51.456;-0.916;2023-06-14T07:00:11;101167.88;;;39.26;8.99
73862;BME280;63459;51.456;-0.916;2023-06-14T07:02:36;101161.73;;;39.33;9.10
73862;BME280;63459;51.456;-0.916;2023-06-14T07:05:01;101164.33;;;39.14;9.19
73862;BME280;63459;51.456;-0.916;2023-06-14T07:07:26;101170.24;;;39.03;9.31
73862;BME280;63459;51.456;-0.916;2023-06-14T07:09:51;101168.02;;;39.27;9.32
73862;BME280;63459;51.456;-0.916;2023-06-14T07:12:21;101169.69;;;39.09;9.46
73862;BME280;63459;51.456;-0.916;2023-06-14T07:14:42;101170.01;;;38.98;9.53
73862;BME280;63459;51.456;-0.916;2023-06-14T07:17:09;101174.78;;;39.20;9.57
73862;BME280;63459;51.456;-0.916;2023-06-14T07:19:32;101172.26;;;39.35;9.55
73862;BME280;63459;51.456;-0.916;2023-06-14T07:21:57;101172.58;;;39.73;9.59
73862;BME280;63459;51.456;-0.916;2023-06-14T07:24:33;101172.72;;;39.48;9.54
73862;BME280;63459;51.456;-0.916;2023-06-14T07:26:53;101177.69;;;38.97;9.52
73862;BME280;63459;51.456;-0.916;2023-06-14T07:29:22;101176.29;;;39.29;9.65
73862;BME280;63459;51.456;-0.916;2023-06-14T07:31:47;101174.07;;;39.18;9.74
73862;BME280;63459;51.456;-0.916;2023-06-14T07:34:07;101177.04;;;39.38;9.89
73862;BME280;63459;51.456;-0.916;2023-06-14T07:38:58;101170.57;;;39.08;10.31
73862;BME280;63459;51.456;-0.916;2023-06-14T07:41:18;101171.57;;;37.40;10.61
73862;BME280;63459;51.456;-0.916;2023-06-14T07:43:58;101171.91;;;37.18;10.91
73862;BME280;63459;51.456;-0.916;2023-06-14T07:46:09;101169.36;;;37.45;11.13
73862;BME280;63459;51.456;-0.916;2023-06-14T07:48:33;101169.75;;;37.08;11.40
73862;BME280;63459;51.456;-0.916;2023-06-14T07:51:01;101168.84;;;36.70;11.81
73862;BME280;63459;51.456;-0.916;2023-06-14T07:53:24;101172.15;;;36.24;12.10
73862;BME280;63459;51.456;-0.916;2023-06-14T07:55:52;101174.35;;;36.05;12.42
73862;BME280;63459;51.456;-0.916;2023-06-14T07:58:15;101176.52;;;35.44;12.53
73862;BME280;63459;51.456;-0.916;2023-06-14T08:00:39;101173.66;;;35.40;12.62
73862;BME280;63459;51.456;-0.916;2023-06-14T08:03:03;101172.95;;;36.08;12.78
73862;BME280;63459;51.456;-0.916;2023-06-14T08:05:29;101170.97;;;35.50;12.81
73862;BME280;63459;51.456;-0.916;2023-06-14T08:07:55;101170.57;;;35.88;12.90
73862;BME280;63459;51.456;-0.916;2023-06-14T08:10:30;101170.63;;;35.17;12.99
73862;BME280;63459;51.456;-0.916;2023-06-14T08:12:52;101176.76;;;35.30;13.20
73862;BME280;63459;51.456;-0.916;2023-06-14T08:15:11;101173.88;;;35.04;13.26
73862;BME280;63459;51.456;-0.916;2023-06-14T08:17:35;101178.09;;;35.94;13.36
73862;BME280;63459;51.456;-0.916;2023-06-14T08:20:00;101178.43;;;35.71;13.37
73862;BME280;63459;51.456;-0.916;2023-06-14T08:22:32;101173.91;;;35.56;13.50
73862;BME280;63459;51.456;-0.916;2023-06-14T08:24:50;101173.88;;;35.23;13.54
73862;BME280;63459;51.456;-0.916;2023-06-14T08:27:16;101176.12;;;35.27;13.53
73862;BME280;63459;51.456;-0.916;2023-06-14T08:29:53;101177.31;;;36.02;13.47
73862;BME280;63459;51.456;-0.916;2023-06-14T08:32:06;101176.55;;;35.61;13.52
73862;BME280;63459;51.456;-0.916;2023-06-14T08:34:32;101178.49;;;35.42;13.54
73862;BME280;63459;51.456;-0.916;2023-06-14T08:37:01;101178.95;;;35.45;13.54
73862;BME280;63459;51.456;-0.916;2023-06-14T08:39:21;101176.45;;;35.94;13.57
73862;BME280;63459;51.456;-0.916;2023-06-14T08:41:53;101174.22;;;35.72;13.62
73862;BME280;63459;51.456;-0.916;2023-06-14T08:44:13;101171.89;;;35.08;13.68
73862;BME280;63459;51.456;-0.916;2023-06-14T08:46:38;101171.47;;;35.87;13.74
73862;BME280;63459;51.456;-0.916;2023-06-14T08:49:08;101167.19;;;35.71;13.73
73862;BME280;63459;51.456;-0.916;2023-06-14T08:51:35;101168.55;;;36.00;13.75
73862;BME280;63459;51.456;-0.916;2023-06-14T08:53:54;101168.05;;;35.77;13.82
73862;BME280;63459;51.456;-0.916;2023-06-14T08:56:20;101167.74;;;36.03;13.75
73862;BME280;63459;51.456;-0.916;2023-06-14T09:01:13;101164.36;;;35.98;13.65
73862;BME280;63459;51.456;-0.916;2023-06-14T09:03:42;101163.97;;;36.06;13.68
73862;BME280;63459;51.456;-0.916;2023-06-14T09:06:12;101167.36;;;36.57;13.65
73862;BME280;63459;51.456;-0.916;2023-06-14T09:08:34;101168.11;;;35.87;13.73
73862;BME280;63459;51.456;-0.916;2023-06-14T09:11:11;101160.85;;;35.65;13.78
73862;BME280;63459;51.456;-0.916;2023-06-14T09:13:27;101166.22;;;36.02;13.73
73862;BME280;63459;51.456;-0.916;2023-06-14T09:15:41;101165.16;;;36.12;13.70
73862;BME280;63459;51.456;-0.916;2023-06-14T09:18:04;101168.64;;;36.26;13.67
73862;BME280;63459;51.456;-0.916;2023-06-14T09:20:35;101169.91;;;36.18;13.63
73862;BME280;63459;51.456;-0.916;2023-06-14T09:23:01;101174.76;;;36.49;13.59
73862;BME280;63459;51.456;-0.916;2023-06-14T09:25:22;101174.94;;;36.30;13.65
73862;BME280;63459;51.456;-0.916;2023-06-14T09:27:47;101177.54;;;36.47;13.59
73862;BME280;63459;51.456;-0.916;2023-06-14T09:30:19;101178.18;;;36.34;13.65
73862;BME280;63459;51.456;-0.916;2023-06-14T09:32:37;101180.32;;;36.63;13.61
73862;BME280;63459;51.456;-0.916;2023-06-14T09:35:04;101179.46;;;36.98;13.58
73862;BME280;63459;51.456;-0.916;2023-06-14T09:37:34;101186.96;;;36.82;13.42
73862;BME280;63459;51.456;-0.916;2023-06-14T09:40:00;101183.41;;;36.44;13.36
73862;BME280;63459;51.456;-0.916;2023-06-14T09:42:20;101184.14;;;36.71;13.26
73862;BME280;63459;51.456;-0.916;2023-06-14T09:44:43;101181.20;;;36.54;13.28
73862;BME280;63459;51.456;-0.916;2023-06-14T09:47:14;101179.01;;;36.73;13.53
73862;BME280;63459;51.456;-0.916;2023-06-14T09:49:38;101180.99;;;36.50;13.42
73862;BME280;63459;51.456;-0.916;2023-06-14T09:54:34;101175.22;;;37.06;13.42
73862;BME280;63459;51.456;-0.916;2023-06-14T09:56:51;101180.67;;;36.73;13.51
73862;BME280;63459;51.456;-0.916;2023-06-14T09:59:31;101176.38;;;37.00;13.42
73862;BME280;63459;51.456;-0.916;2023-06-14T10:01:46;101176.38;;;36.92;13.45
73862;BME280;63459;51.456;-0.916;2023-06-14T10:04:06;101178.98;;;36.87;13.16
73862;BME280;63459;51.456;-0.916;2023-06-14T10:08:57;101174.37;;;36.78;13.14
73862;BME280;63459;51.456;-0.916;2023-06-14T10:11:21;101169.72;;;37.14;13.10
73862;BME280;63459;51.456;-0.916;2023-06-14T10:13:46;101167.49;;;37.03;12.94
73862;BME280;63459;51.456;-0.916;2023-06-14T10:16:16;101163.05;;;37.09;12.98
73862;BME280;63459;51.456;-0.916;2023-06-14T10:18:47;101173.07;;;36.93;13.05
73862;BME280;63459;51.456;-0.916;2023-06-14T10:21:08;101164.93;;;37.12;13.04
73862;BME280;63459;51.456;-0.916;2023-06-14T10:23:29;101170.18;;;37.21;12.97
73862;BME280;63459;51.456;-0.916;2023-06-14T10:26:01;101168.60;;;36.88;12.71
73862;BME280;63459;51.456;-0.916;2023-06-14T10:28:20;101162.10;;;37.21;12.62
73862;BME280;63459;51.456;-0.916;2023-06-14T10:31:04;101168.77;;;37.30;12.64
73862;BME280;63459;51.456;-0.916;2023-06-14T10:33:22;101167.04;;;37.77;12.60
73862;BME280;63459;51.456;-0.916;2023-06-14T10:35:52;101170.98;;;37.24;12.51
73862;BME280;63459;51.456;-0.916;2023-06-14T10:38:06;101171.81;;;37.46;12.50
73862;BME280;63459;51.456;-0.916;2023-06-14T10:47:41;101165.54;;;37.27;12.31
73862;BME280;63459;51.456;-0.916;2023-06-14T10:50:14;101170.51;;;37.46;12.25
73862;BME280;63459;51.456;-0.916;2023-06-14T10:52:48;101166.25;;;37.90;12.15
73862;BME280;63459;51.456;-0.916;2023-06-14T10:55:03;101166.13;;;37.34;11.99
73862;BME280;63459;51.456;-0.916;2023-06-14T10:57:28;101170.75;;;37.44;12.08
73862;BME280;63459;51.456;-0.916;2023-06-14T10:59:52;101168.50;;;37.61;11.94
73862;BME280;63459;51.456;-0.916;2023-06-14T11:04:48;101169.05;;;37.66;11.68
73862;BME280;63459;51.456;-0.916;2023-06-14T11:09:55;101160.45;;;37.64;11.71
73862;BME280;63459;51.456;-0.916;2023-06-14T11:12:02;101158.20;;;37.93;11.82
73862;BME280;63459;51.456;-0.916;2023-06-14T11:14:23;101160.87;;;37.59;11.39
73862;BME280;63459;51.456;-0.916;2023-06-14T11:16:51;101162.86;;;37.90;11.01
73862;BME280;63459;51.456;-0.916;2023-06-14T11:19:11;101162.31;;;38.24;10.71
73862;BME280;63459;51.456;-0.916;2023-06-14T11:21:46;101157.90;;;38.06;10.40
73862;BME280;63459;51.456;-0.916;2023-06-14T11:24:04;101154.18;;;37.94;10.50
73862;BME280;63459;51.456;-0.916;2023-06-14T11:26:37;101154.30;;;38.32;10.89
73862;BME280;63459;51.456;-0.916;2023-06-14T11:28:55;101149.50;;;38.21;11.04
73862;BME280;63459;51.456;-0.916;2023-06-14T11:31:16;101154.39;;;38.51;10.95
73862;BME280;63459;51.456;-0.916;2023-06-14T11:33:54;101155.00;;;38.62;10.79
73862;BME280;63459;51.456;-0.916;2023-06-14T11:36:18;101152.14;;;38.84;10.48
73862;BME280;63459;51.456;-0.916;2023-06-14T11:38:37;101150.54;;;38.23;10.34
73862;BME280;63459;51.456;-0.916;2023-06-14T11:41:03;101150.83;;;38.29;10.27
73862;BME280;63459;51.456;-0.916;2023-06-14T11:43:32;101156.26;;;38.26;10.22
73862;BME280;63459;51.456;-0.916;2023-06-14T11:45:59;101161.65;;;38.55;10.23
73862;BME280;63459;51.456;-0.916;2023-06-14T11:48:15;101157.97;;;38.11;9.87
73862;BME280;63459;51.456;-0.916;2023-06-14T11:50:39;101156.63;;;38.27;9.91
73862;BME280;63459;51.456;-0.916;2023-06-14T11:53:05;101156.00;;;38.71;10.04
73862;BME280;63459;51.456;-0.916;2023-06-14T11:55:30;101152.00;;;38.30;10.30
73862;BME280;63459;51.456;-0.916;2023-06-14T11:57:55;101155.09;;;38.29;10.38
73862;BME280;63459;51.456;-0.916;2023-06-14T12:00:25;101149.08;;;38.37;10.18
73862;BME280;63459;51.456;-0.916;2023-06-14T12:05:26;101145.95;;;38.58;10.36
73862;BME280;63459;51.456;-0.916;2023-06-14T12:07:41;101150.08;;;38.07;10.42
73862;BME280;63459;51.456;-0.916;2023-06-14T12:10:06;101142.69;;;38.64;10.09
73862;BME280;63459;51.456;-0.916;2023-06-14T12:12:27;101138.44;;;38.43;10.07
73862;BME280;63459;51.456;-0.916;2023-06-14T12:15:03;101149.32;;;38.08;10.08
73862;BME280;63459;51.456;-0.916;2023-06-14T12:17:19;101143.35;;;38.29;9.70
73862;BME280;63459;51.456;-0.916;2023-06-14T12:19:52;101139.55;;;38.53;9.56
73862;BME280;63459;51.456;-0.916;2023-06-14T12:22:18;101140.85;;;38.59;9.68
73862;BME280;63459;51.456;-0.916;2023-06-14T12:24:34;101131.88;;;38.43;9.78
73862;BME280;63459;51.456;-0.916;2023-06-14T12:29:25;101142.82;;;38.59;9.97
73862;BME280;63459;51.456;-0.916;2023-06-14T12:31:49;101131.38;;;38.38;9.87
73862;BME280;63459;51.456;-0.916;2023-06-14T12:34:14;101128.24;;;38.38;9.69
73862;BME280;63459;51.456;-0.916;2023-06-14T12:36:50;101133.46;;;38.36;9.78
73862;BME280;63459;51.456;-0.916;2023-06-14T12:39:05;101138.07;;;38.67;9.72
73862;BME280;63459;51.456;-0.916;2023-06-14T12:41:35;101126.56;;;38.51;9.68
73862;BME280;63459;51.456;-0.916;2023-06-14T12:43:56;101129.75;;;38.59;9.67
73862;BME280;63459;51.456;-0.916;2023-06-14T12:46:20;101131.61;;;38.18;9.63
73862;BME280;63459;51.456;-0.916;2023-06-14T12:48:50;101128.82;;;38.23;8.71
73862;BME280;63459;51.456;-0.916;2023-06-14T12:51:18;101126.80;;;38.71;8.61
73862;BME280;63459;51.456;-0.916;2023-06-14T12:53:40;101129.21;;;39.14;8.79
73862;BME280;63459;51.456;-0.916;2023-06-14T12:56:09;101135.87;;;38.50;8.90
73862;BME280;63459;51.456;-0.916;2023-06-14T12:58:28;101125.05;;;38.45;8.88
73862;BME280;63459;51.456;-0.916;2023-06-14T13:00:53;101123.29;;;38.98;8.79
73862;BME280;63459;51.456;-0.916;2023-06-14T13:03:24;101127.35;;;38.84;8.70
73862;BME280;63459;51.456;-0.916;2023-06-14T13:05:48;101122.82;;;38.61;8.63
73862;BME280;63459;51.456;-0.916;2023-06-14T13:08:12;101127.15;;;39.05;8.51
73862;BME280;63459;51.456;-0.916;2023-06-14T13:10:46;101128.31;;;38.92;8.57
73862;BME280;63459;51.456;-0.916;2023-06-14T13:13:02;101122.42;;;39.16;8.50
73862;BME280;63459;51.456;-0.916;2023-06-14T13:15:28;101123.19;;;39.01;8.51
73862;BME280;63459;51.456;-0.916;2023-06-14T13:17:55;101126.29;;;38.97;8.56
73862;BME280;63459;51.456;-0.916;2023-06-14T13:20:17;101127.70;;;38.60;8.48
73862;BME280;63459;51.456;-0.916;2023-06-14T13:22:43;101126.57;;;38.99;8.43
73862;BME280;63459;51.456;-0.916;2023-06-14T13:25:09;101129.67;;;39.15;8.29
73862;BME280;63459;51.456;-0.916;2023-06-14T13:30:02;101127.46;;;39.02;8.36
73862;BME280;63459;51.456;-0.916;2023-06-14T13:32:24;101128.61;;;39.18;8.15
73862;BME280;63459;51.456;-0.916;2023-06-14T13:34:49;101130.75;;;39.48;8.18
73862;BME280;63459;51.456;-0.916;2023-06-14T13:37:16;101127.16;;;39.20;8.20
73862;BME280;63459;51.456;-0.916;2023-06-14T13:39:45;101126.89;;;38.96;8.19
73862;BME280;63459;51.456;-0.916;2023-06-14T13:42:07;101125.42;;;38.48;8.01
73862;BME280;63459;51.456;-0.916;2023-06-14T13:44:31;101120.25;;;38.93;8.12
73862;BME280;63459;51.456;-0.916;2023-06-14T13:46:57;101114.95;;;39.25;8.08
73862;BME280;63459;51.456;-0.916;2023-06-14T13:49:22;101119.02;;;39.25;8.21
73862;BME280;63459;51.456;-0.916;2023-06-14T13:51:52;101121.36;;;38.75;8.15
73862;BME280;63459;51.456;-0.916;2023-06-14T13:54:21;101117.64;;;39.76;8.06
73862;BME280;63459;51.456;-0.916;2023-06-14T13:56:38;101114.19;;;39.33;7.98
73862;BME280;63459;51.456;-0.916;2023-06-14T13:59:04;101118.18;;;39.55;7.91
73862;BME280;63459;51.456;-0.916;2023-06-14T14:01:30;101117.46;;;39.20;8.03
73862;BME280;63459;51.456;-0.916;2023-06-14T14:03:54;101111.36;;;39.59;8.08
73862;BME280;63459;51.456;-0.916;2023-06-14T14:06:20;101116.43;;;38.97;8.14
73862;BME280;63459;51.456;-0.916;2023-06-14T14:08:45;101110.79;;;38.81;8.26
73862;BME280;63459;51.456;-0.916;2023-06-14T14:11:10;101105.04;;;39.05;8.35
73862;BME280;63459;51.456;-0.916;2023-06-14T14:13:35;101100.35;;;39.52;8.43
73862;BME280;63459;51.456;-0.916;2023-06-14T14:16:02;101108.19;;;39.20;8.46
73862;BME280;63459;51.456;-0.916;2023-06-14T14:18:27;101106.99;;;39.37;8.41
73862;BME280;63459;51.456;-0.916;2023-06-14T14:20:52;101109.48;;;39.20;8.25
73862;BME280;63459;51.456;-0.916;2023-06-14T14:23:17;101106.59;;;39.28;8.28
73862;BME280;63459;51.456;-0.916;2023-06-14T14:25:43;101108.63;;;38.63;8.04
73862;BME280;63459;51.456;-0.916;2023-06-14T14:28:13;101110.01;;;39.31;7.97
73862;BME280;63459;51.456;-0.916;2023-06-14T14:30:35;101109.61;;;39.36;7.80
73862;BME280;63459;51.456;-0.916;2023-06-14T14:32:59;101101.81;;;39.48;7.57
73862;BME280;63459;51.456;-0.916;2023-06-14T14:35:44;101107.40;;;39.83;7.55
73862;BME280;63459;51.456;-0.916;2023-06-14T14:37:55;101105.61;;;39.35;7.46
73862;BME280;63459;51.456;-0.916;2023-06-14T14:42:41;101105.16;;;40.03;7.08
73862;BME280;63459;51.456;-0.916;2023-06-14T14:45:07;101107.83;;;39.54;7.04
73862;BME280;63459;51.456;-0.916;2023-06-14T14:47:31;101106.14;;;40.27;7.16
73862;BME280;63459;51.456;-0.916;2023-06-14T14:49:59;101109.60;;;40.12;7.44
73862;BME280;63459;51.456;-0.916;2023-06-14T14:52:21;101109.09;;;40.18;7.53
73862;BME280;63459;51.456;-0.916;2023-06-14T14:54:52;101123.19;;;40.22;7.59
73862;BME280;63459;51.456;-0.916;2023-06-14T14:57:18;101115.52;;;40.02;7.33
73862;BME280;63459;51.456;-0.916;2023-06-14T14:59:38;101111.09;;;40.25;7.37
73862;BME280;63459;51.456;-0.916;2023-06-14T15:02:03;101116.18;;;39.87;7.39
73862;BME280;63459;51.456;-0.916;2023-06-14T15:04:28;101104.94;;;40.40;7.36
73862;BME280;63459;51.456;-0.916;2023-06-14T15:07:02;101106.63;;;39.90;7.31
73862;BME280;63459;51.456;-0.916;2023-06-14T15:09:18;101103.42;;;40.51;7.43
73862;BME280;63459;51.456;-0.916;2023-06-14T15:11:43;101106.29;;;39.90;7.65
73862;BME280;63459;51.456;-0.916;2023-06-14T15:14:09;101110.86;;;39.92;7.63
73862;BME280;63459;51.456;-0.916;2023-06-14T15:16:39;101110.48;;;40.04;7.50
73862;BME280;63459;51.456;-0.916;2023-06-14T15:19:06;101107.26;;;39.55;7.47
73862;BME280;63459;51.456;-0.916;2023-06-14T15:21:25;101102.84;;;39.93;7.46
73862;BME280;63459;51.456;-0.916;2023-06-14T15:23:56;101100.69;;;39.46;7.55
73862;BME280;63459;51.456;-0.916;2023-06-14T15:26:16;101101.00;;;39.84;7.34
73862;BME280;63459;51.456;-0.916;2023-06-14T15:28:41;101104.72;;;39.79;7.28
73862;BME280;63459;51.456;-0.916;2023-06-14T15:31:10;101100.78;;;39.71;7.13
73862;BME280;63459;51.456;-0.916;2023-06-14T15:33:42;101100.54;;;39.71;7.22
73862;BME280;63459;51.456;-0.916;2023-06-14T15:35:58;101103.14;;;39.89;7.32
73862;BME280;63459;51.456;-0.916;2023-06-14T15:38:23;101101.85;;;39.63;7.37
73862;BME280;63459;51.456;-0.916;2023-06-14T15:40:48;101104.12;;;39.94;7.37
73862;BME280;63459;51.456;-0.916;2023-06-14T15:43:13;101106.43;;;39.38;7.27
73862;BME280;63459;51.456;-0.916;2023-06-14T15:45:38;101102.10;;;40.08;7.31
73862;BME280;63459;51.456;-0.916;2023-06-14T15:48:06;101102.01;;;39.93;7.35
73862;BME280;63459;51.456;-0.916;2023-06-14T15:50:29;101101.98;;;39.86;7.41
73862;BME280;63459;51.456;-0.916;2023-06-14T15:52:55;101093.53;;;39.86;7.43
73862;BME280;63459;51.456;-0.916;2023-06-14T15:55:20;101099.32;;;39.48;7.45
73862;BME280;63459;51.456;-0.916;2023-06-14T15:57:45;101106.74;;;39.53;7.12
73862;BME280;63459;51.456;-0.916;2023-06-14T16:00:16;101099.91;;;40.36;7.08
73862;BME280;63459;51.456;-0.916;2023-06-14T16:05:02;101093.30;;;39.61;6.97
73862;BME280;63459;51.456;-0.916;2023-06-14T16:07:31;101092.64;;;39.85;6.95
73862;BME280;63459;51.456;-0.916;2023-06-14T16:09:57;101092.86;;;39.81;6.99